Time;durP1;ratioP1;P1;durP2;ratioP2;P2;SDS_P1;SDS_P2;PMS_P1;PMS_P2;Temp;Humidity;BMP_temperature;BMP_pressure;BME280_temperature;BME280_humidity;BME280_pressure;Samples;Min_cycle;Max_cycle;Signal;HPM_P1;HPM_P2
2021/06/03 00:01:50;;;;;;;12.00;7.18;;;;;;;;;;6250014;28;20119;-68
2021/06/03 00:04:53;;;;;;;13.30;9.65;;;;;;;;;;6239781;28;20050;-68
2021/06/03 00:07:55;;;;;;;6.28;4.95;;;;;;;;;;6224779;28;20077;-69
2021/06/03 00:10:59;;;;;;;6.05;5.38;;;;;;;;;;6225033;28;20116;-68
2021/06/03 00:14:00;;;;;;;7.28;5.47;;;;;;;;;;6224418;28;20073;-69
2021/06/03 00:17:02;;;;;;;8.35;5.32;;;;;;;;;;6225199;28;20140;-68
2021/06/03 00:20:08;;;;;;;6.20;5.13;;;;;;;;;;6224891;28;20133;-68
2021/06/03 00:23:09;;;;;;;7.43;4.93;;;;;;;;;;6224948;28;20128;-68
2021/06/03 00:26:10;;;;;;;6.93;5.07;;;;;;;;;;6224000;28;20129;-68
2021/06/03 00:29:11;;;;;;;8.07;4.82;;;;;;;;;;6224575;28;20088;-68
2021/06/03 00:32:13;;;;;;;6.22;5.15;;;;;;;;;;6224540;28;20121;-69
2021/06/03 00:35:15;;;;;;;7.55;5.65;;;;;;;;;;6224665;28;20054;-68
2021/06/03 00:38:17;;;;;;;6.60;4.78;;;;;;;;;;6224265;28;20470;-68
2021/06/03 00:41:19;;;;;;;9.38;5.15;;;;;;;;;;6222768;28;20053;-68
2021/06/03 00:44:20;;;;;;;7.72;5.45;;;;;;;;;;6223773;28;20096;-69
2021/06/03 00:47:21;;;;;;;6.10;5.35;;;;;;;;;;6224537;28;20049;-68
2021/06/03 00:50:30;;;;;;;6.20;5.38;;;;;;;;;;6224146;28;20125;-68
2021/06/03 00:53:31;;;;;;;5.35;4.82;;;;;;;;;;6225031;28;20046;-68
2021/06/03 00:56:35;;;;;;;6.22;4.97;;;;;;;;;;6224070;28;20048;-68
2021/06/03 00:59:36;;;;;;;5.57;4.70;;;;;;;;;;6224334;28;20057;-68
2021/06/03 01:02:37;;;;;;;6.78;5.43;;;;;;;;;;6223852;28;20128;-68
2021/06/03 01:05:43;;;;;;;7.15;5.38;;;;;;;;;;6223906;28;20140;-68
2021/06/03 01:08:51;;;;;;;8.25;5.18;;;;;;;;;;6223235;28;20058;-68
2021/06/03 01:11:58;;;;;;;5.90;5.13;;;;;;;;;;6224512;28;20060;-68
2021/06/03 01:15:03;;;;;;;5.90;5.30;;;;;;;;;;6224214;28;20046;-68
2021/06/03 01:18:05;;;;;;;7.35;4.63;;;;;;;;;;6223172;28;20212;-69
2021/06/03 01:21:17;;;;;;;7.88;5.05;;;;;;;;;;6223777;28;20077;-68
2021/06/03 01:24:24;;;;;;;7.80;5.20;;;;;;;;;;6222949;28;20093;-68
2021/06/03 01:27:28;;;;;;;6.80;5.13;;;;;;;;;;6224117;28;20140;-68
2021/06/03 01:30:30;;;;;;;;;;;;;;;;;;6224272;28;20161;-69
2021/06/03 01:33:38;;;;;;;5.30;4.80;;;;;;;;;;6223597;28;20008;-68
2021/06/03 01:36:39;;;;;;;5.25;4.65;;;;;;;;;;6225935;28;20049;-68
2021/06/03 01:39:42;;;;;;;6.25;5.10;;;;;;;;;;6228321;28;20499;-68
2021/06/03 01:42:45;;;;;;;6.65;5.65;;;;;;;;;;6225198;28;20492;-68
2021/06/03 01:45:48;;;;;;;7.68;5.25;;;;;;;;;;6218398;28;20133;-68
2021/06/03 01:48:49;;;;;;;6.03;5.43;;;;;;;;;;6228287;28;20125;-69
2021/06/03 01:51:51;;;;;;;6.10;5.05;;;;;;;;;;6228246;28;20054;-68
2021/06/03 01:54:54;;;;;;;6.82;5.55;;;;;;;;;;6227203;28;20084;-68
2021/06/03 01:57:56;;;;;;;7.28;4.90;;;;;;;;;;6227736;28;20386;-68
2021/06/03 02:00:57;;;;;;;8.35;5.20;;;;;;;;;;6227897;28;20070;-68
2021/06/03 02:03:59;;;;;;;5.57;5.07;;;;;;;;;;6228203;28;20050;-68
2021/06/03 02:07:00;;;;;;;6.15;4.80;;;;;;;;;;6227128;28;20058;-68
2021/06/03 02:10:04;;;;;;;6.25;5.22;;;;;;;;;;6224498;28;20133;-69
2021/06/03 02:13:06;;;;;;;;;;;;;;;;;;6228201;28;20133;-69
2021/06/03 02:16:13;;;;;;;6.72;5.30;;;;;;;;;;6227699;28;20012;-69
2021/06/03 02:19:16;;;;;;;6.07;4.57;;;;;;;;;;6227299;28;20384;-68
2021/06/03 02:22:17;;;;;;;;;;;;;;;;;;6227154;28;20064;-69
2021/06/03 02:25:20;;;;;;;8.00;5.65;;;;;;;;;;6227544;28;19921;-68
2021/06/03 02:28:21;;;;;;;6.80;6.10;;;;;;;;;;6226915;28;20508;-68
2021/06/03 02:31:23;;;;;;;8.32;5.72;;;;;;;;;;6222372;28;20137;-68
2021/06/03 02:34:25;;;;;;;7.35;6.00;;;;;;;;;;6227251;28;20567;-68
2021/06/03 02:37:26;;;;;;;7.85;5.70;;;;;;;;;;6227055;28;20092;-68
2021/06/03 02:40:30;;;;;;;7.03;6.32;;;;;;;;;;6226717;28;20085;-69
2021/06/03 02:43:33;;;;;;;6.70;5.78;;;;;;;;;;6226969;28;20068;-69
2021/06/03 02:46:34;;;;;;;5.80;5.20;;;;;;;;;;6226743;28;20133;-68
2021/06/03 02:49:36;;;;;;;8.15;5.40;;;;;;;;;;6226097;28;20679;-68
2021/06/03 02:52:37;;;;;;;5.80;5.20;;;;;;;;;;6226797;28;20136;-68
2021/06/03 02:55:41;;;;;;;6.38;5.47;;;;;;;;;;6227139;28;20041;-68
2021/06/03 02:58:43;;;;;;;7.97;6.20;;;;;;;;;;6226326;28;20084;-69
2021/06/03 03:01:44;;;;;;;7.63;6.50;;;;;;;;;;6226221;28;20558;-69
2021/06/03 03:04:45;;;;;;;8.73;6.38;;;;;;;;;;6225517;28;20503;-68
2021/06/03 03:07:48;;;;;;;6.93;5.70;;;;;;;;;;6226441;28;20129;-68
2021/06/03 03:10:54;;;;;;;8.00;6.43;;;;;;;;;;6226331;28;20046;-68
2021/06/03 03:13:55;;;;;;;10.93;5.75;;;;;;;;;;6226641;28;20145;-68
2021/06/03 03:16:56;;;;;;;7.57;5.68;;;;;;;;;;6226051;28;20133;-68
2021/06/03 03:19:57;;;;;;;7.32;5.68;;;;;;;;;;6226589;28;20150;-68
2021/06/03 03:22:59;;;;;;;8.50;5.90;;;;;;;;;;6226532;28;20107;-68
2021/06/03 03:26:01;;;;;;;7.82;5.85;;;;;;;;;;6226163;28;20153;-68
2021/06/03 03:29:02;;;;;;;8.25;5.70;;;;;;;;;;6226006;28;20536;-68
2021/06/03 03:32:04;;;;;;;8.02;6.35;;;;;;;;;;6226288;28;20049;-68
2021/06/03 03:35:07;;;;;;;6.60;5.63;;;;;;;;;;6225599;28;20082;-68
2021/06/03 03:38:09;;;;;;;9.25;5.57;;;;;;;;;;6225451;28;20149;-69
2021/06/03 03:41:11;;;;;;;7.15;5.47;;;;;;;;;;6226292;28;20133;-68
2021/06/03 03:44:12;;;;;;;10.43;5.70;;;;;;;;;;6225423;28;20133;-70
2021/06/03 03:47:13;;;;;;;7.97;6.25;;;;;;;;;;6226032;28;20120;-68
2021/06/03 03:50:16;;;;;;;9.38;6.30;;;;;;;;;;6224612;28;20462;-68
2021/06/03 03:53:17;;;;;;;9.23;5.93;;;;;;;;;;6225487;28;20053;-68
2021/06/03 03:56:19;;;;;;;9.85;5.97;;;;;;;;;;6225011;28;20544;-69
2021/06/03 03:59:20;;;;;;;8.70;6.35;;;;;;;;;;6224065;28;20560;-68
2021/06/03 04:02:21;;;;;;;9.18;5.93;;;;;;;;;;6224302;28;20404;-68
2021/06/03 04:05:23;;;;;;;8.02;5.85;;;;;;;;;;6224387;28;20493;-68
2021/06/03 04:08:24;;;;;;;8.90;6.13;;;;;;;;;;6224854;28;20137;-68
2021/06/03 04:11:27;;;;;;;10.15;6.20;;;;;;;;;;6224878;28;20494;-67
2021/06/03 04:14:28;;;;;;;8.95;5.55;;;;;;;;;;6225204;28;20491;-68
2021/06/03 04:17:29;;;;;;;9.38;5.88;;;;;;;;;;6224896;28;20133;-67
2021/06/03 04:20:33;;;;;;;7.28;6.28;;;;;;;;;;6225006;28;20037;-67
2021/06/03 04:23:34;;;;;;;9.32;6.57;;;;;;;;;;6224920;28;20052;-67
2021/06/03 04:26:36;;;;;;;10.48;6.45;;;;;;;;;;6224270;28;20065;-68
2021/06/03 04:29:37;;;;;;;9.32;6.22;;;;;;;;;;6224322;28;20468;-67
2021/06/03 04:32:39;;;;;;;8.07;6.30;;;;;;;;;;6224035;28;20504;-68
2021/06/03 04:35:40;;;;;;;16.13;6.32;;;;;;;;;;6224187;28;20604;-68
2021/06/03 04:38:41;;;;;;;12.20;7.07;;;;;;;;;;6223893;28;20141;-68
2021/06/03 04:41:44;;;;;;;10.15;6.97;;;;;;;;;;6224066;28;20046;-68
2021/06/03 04:44:45;;;;;;;11.23;7.40;;;;;;;;;;6224458;28;20080;-68
2021/06/03 04:47:47;;;;;;;14.70;8.10;;;;;;;;;;6224293;28;20123;-67
2021/06/03 04:50:48;;;;;;;12.27;7.40;;;;;;;;;;6224116;28;20628;-68
2021/06/03 04:53:49;;;;;;;13.18;8.23;;;;;;;;;;6226193;28;20049;-68
2021/06/03 04:56:52;;;;;;;15.48;8.43;;;;;;;;;;6226520;28;20450;-68
2021/06/03 04:59:53;;;;;;;14.18;8.93;;;;;;;;;;6224107;28;20050;-67
2021/06/03 05:02:55;;;;;;;12.00;9.02;;;;;;;;;;6224004;28;20136;-68
2021/06/03 05:05:56;;;;;;;11.80;9.38;;;;;;;;;;6223901;28;20077;-68
2021/06/03 05:08:57;;;;;;;15.60;9.88;;;;;;;;;;6223923;28;20132;-68
2021/06/03 05:11:59;;;;;;;12.57;11.27;;;;;;;;;;6228747;28;20050;-68
2021/06/03 05:15:01;;;;;;;15.50;11.05;;;;;;;;;;6231322;28;20608;-67
2021/06/03 05:18:02;;;;;;;13.32;11.57;;;;;;;;;;6231673;28;20084;-67
2021/06/03 05:21:03;;;;;;;14.82;12.38;;;;;;;;;;6231086;28;20506;-67
2021/06/03 05:24:05;;;;;;;16.40;12.13;;;;;;;;;;6231783;28;20128;-67
2021/06/03 05:27:08;;;;;;;19.70;13.85;;;;;;;;;;6231902;28;20054;-66
2021/06/03 05:30:11;;;;;;;15.10;13.50;;;;;;;;;;6231802;28;20133;-67
2021/06/03 05:33:12;;;;;;;20.25;14.10;;;;;;;;;;6232497;28;20128;-68
2021/06/03 05:36:13;;;;;;;16.55;14.23;;;;;;;;;;6231965;28;20560;-67
2021/06/03 05:39:14;;;;;;;17.52;14.35;;;;;;;;;;6232480;28;20136;-67
2021/06/03 05:42:17;;;;;;;20.92;14.05;;;;;;;;;;6232229;28;20500;-67
2021/06/03 05:45:19;;;;;;;16.52;13.88;;;;;;;;;;6231762;28;20136;-67
2021/06/03 05:48:20;;;;;;;16.83;13.18;;;;;;;;;;6231273;28;20061;-67
2021/06/03 05:51:22;;;;;;;17.73;15.15;;;;;;;;;;6230981;28;20054;-67
2021/06/03 05:54:23;;;;;;;16.77;14.98;;;;;;;;;;6231893;28;20130;-68
2021/06/03 05:57:25;;;;;;;18.98;14.68;;;;;;;;;;6231041;28;20136;-68
2021/06/03 06:00:29;;;;;;;18.30;14.50;;;;;;;;;;6237925;28;20063;-69
2021/06/03 06:03:37;;;;;;;;;;;;;;;;;;6232705;28;20072;-69
2021/06/03 06:06:37;;;;;;;19.25;15.60;;;;;;;;;;6230874;28;19929;-69
2021/06/03 06:09:38;;;;;;;19.65;14.95;;;;;;;;;;6231514;28;20046;-68
2021/06/03 06:12:41;;;;;;;20.58;15.60;;;;;;;;;;6230295;28;20131;-69
2021/06/03 06:15:42;;;;;;;20.73;16.63;;;;;;;;;;6231817;28;20133;-68
2021/06/03 06:18:44;;;;;;;19.52;16.45;;;;;;;;;;6231499;28;20221;-69
2021/06/03 06:21:45;;;;;;;27.08;17.73;;;;;;;;;;6230016;28;20139;-68
2021/06/03 06:24:47;;;;;;;25.88;17.52;;;;;;;;;;6226184;28;20077;-68
2021/06/03 06:27:50;;;;;;;30.73;18.33;;;;;;;;;;6226944;28;20054;-68
2021/06/03 06:30:52;;;;;;;26.55;18.75;;;;;;;;;;6226877;28;20052;-69
2021/06/03 06:33:53;;;;;;;20.58;18.08;;;;;;;;;;6226722;28;20088;-68
2021/06/03 06:36:54;;;;;;;25.08;18.25;;;;;;;;;;6226614;28;20046;-68
2021/06/03 06:39:55;;;;;;;22.42;18.73;;;;;;;;;;6226168;28;20133;-68
2021/06/03 06:42:58;;;;;;;27.10;19.77;;;;;;;;;;6225761;28;20046;-66
2021/06/03 06:45:59;;;;;;;25.45;19.38;;;;;;;;;;6225742;28;20048;-66
2021/06/03 06:49:00;;;;;;;30.00;19.00;;;;;;;;;;6225960;28;20422;-66
2021/06/03 06:52:01;;;;;;;24.13;17.92;;;;;;;;;;6226324;28;20050;-66
2021/06/03 06:55:03;;;;;;;26.27;18.88;;;;;;;;;;6226450;28;20073;-67
2021/06/03 06:58:06;;;;;;;25.67;18.48;;;;;;;;;;6225901;28;20141;-67
2021/06/03 07:01:10;;;;;;;25.07;19.57;;;;;;;;;;6225917;28;20069;-66
2021/06/03 07:04:11;;;;;;;30.45;19.15;;;;;;;;;;6225693;28;20054;-68
2021/06/03 07:07:13;;;;;;;15.70;14.05;;;;;;;;;;6224400;28;20048;-67
2021/06/03 07:10:14;;;;;;;20.27;13.35;;;;;;;;;;6210974;28;20069;-66
2021/06/03 07:13:17;;;;;;;13.77;11.77;;;;;;;;;;6201332;28;20049;-67
2021/06/03 07:16:18;;;;;;;33.10;13.70;;;;;;;;;;6201356;28;20082;-68
2021/06/03 07:19:19;;;;;;;17.67;10.65;;;;;;;;;;6201165;28;20046;-67
2021/06/03 07:22:20;;;;;;;14.73;10.57;;;;;;;;;;6207159;28;20092;-67
2021/06/03 07:25:24;;;;;;;13.27;9.90;;;;;;;;;;6205584;28;20062;-67
2021/06/03 07:28:26;;;;;;;20.05;10.43;;;;;;;;;;6201436;28;20137;-66
2021/06/03 07:31:28;;;;;;;12.90;10.97;;;;;;;;;;6201146;28;20137;-65
2021/06/03 07:34:29;;;;;;;15.07;10.45;;;;;;;;;;6201277;28;20088;-67
2021/06/03 07:37:30;;;;;;;13.00;10.55;;;;;;;;;;6201256;28;20134;-66
2021/06/03 07:40:33;;;;;;;16.05;10.70;;;;;;;;;;6200320;28;20133;-67
2021/06/03 07:43:35;;;;;;;15.32;10.35;;;;;;;;;;6201023;28;20398;-66
2021/06/03 07:46:39;;;;;;;13.93;10.07;;;;;;;;;;6200896;28;20141;-65
2021/06/03 07:49:40;;;;;;;10.07;9.10;;;;;;;;;;6201023;28;20046;-66
2021/06/03 07:52:42;;;;;;;10.98;8.75;;;;;;;;;;6200133;28;20101;-66
2021/06/03 07:55:43;;;;;;;10.45;9.27;;;;;;;;;;6201308;28;20043;-65
2021/06/03 07:58:46;;;;;;;12.50;9.07;;;;;;;;;;6200391;28;20046;-65
2021/06/03 08:01:47;;;;;;;12.73;10.50;;;;;;;;;;6200348;28;20100;-65
2021/06/03 08:04:48;;;;;;;13.40;11.02;;;;;;;;;;6202561;28;20211;-65
2021/06/03 08:07:50;;;;;;;12.73;9.88;;;;;;;;;;6224347;28;20133;-65
2021/06/03 08:10:52;;;;;;;16.42;10.48;;;;;;;;;;6224156;28;20129;-66
2021/06/03 08:13:54;;;;;;;13.60;9.95;;;;;;;;;;6224483;28;20096;-66
2021/06/03 08:16:55;;;;;;;13.70;9.10;;;;;;;;;;6224203;28;20543;-66
2021/06/03 08:19:56;;;;;;;13.52;9.63;;;;;;;;;;6224592;28;20104;-66
2021/06/03 08:22:57;;;;;;;12.57;9.38;;;;;;;;;;6224071;28;20089;-66
2021/06/03 08:25:59;;;;;;;17.02;12.10;;;;;;;;;;6224200;28;20081;-66
2021/06/03 08:29:01;;;;;;;11.95;10.38;;;;;;;;;;6224278;28;20161;-66
2021/06/03 08:32:03;;;;;;;13.82;10.93;;;;;;;;;;6223572;28;20046;-66
2021/06/03 08:35:05;;;;;;;12.35;10.55;;;;;;;;;;6223548;28;20089;-65
2021/06/03 08:38:10;;;;;;;11.27;10.15;;;;;;;;;;6223219;28;20584;-65
2021/06/03 08:41:11;;;;;;;16.17;12.75;;;;;;;;;;6223802;28;20077;-65
2021/06/03 08:44:14;;;;;;;17.02;14.23;;;;;;;;;;6223709;28;20121;-65
2021/06/03 08:47:15;;;;;;;;;;;;;;;;;;6223712;28;20070;-66
2021/06/03 08:50:16;;;;;;;21.63;13.48;;;;;;;;;;6223959;28;19991;-66
2021/06/03 08:53:18;;;;;;;13.27;11.05;;;;;;;;;;6224451;28;20088;-66
2021/06/03 08:56:20;;;;;;;16.23;12.93;;;;;;;;;;6223687;28;20560;-66
2021/06/03 08:59:22;;;;;;;20.10;14.55;;;;;;;;;;6225871;28;20401;-66
2021/06/03 09:02:23;;;;;;;15.98;14.20;;;;;;;;;;6223837;28;20137;-66
2021/06/03 09:05:25;;;;;;;14.57;11.80;;;;;;;;;;6218846;28;20076;-67
2021/06/03 09:08:27;;;;;;;16.83;11.13;;;;;;;;;;6231730;28;20133;-66
2021/06/03 09:11:30;;;;;;;13.07;11.10;;;;;;;;;;6223946;28;20111;-66
2021/06/03 09:14:32;;;;;;;10.88;9.77;;;;;;;;;;6223295;28;20133;-67
2021/06/03 09:17:44;;;;;;;11.52;9.13;;;;;;;;;;6224255;28;20073;-66
2021/06/03 09:20:46;;;;;;;9.85;8.85;;;;;;;;;;6222777;28;20085;-65
2021/06/03 09:23:55;;;;;;;8.40;7.00;;;;;;;;;;6223401;28;20077;-66
2021/06/03 09:26:57;;;;;;;6.50;4.90;;;;;;;;;;6222682;28;20041;-66
2021/06/03 09:30:02;;;;;;;4.47;4.07;;;;;;;;;;6223412;28;20137;-66
2021/06/03 09:33:03;;;;;;;5.82;5.22;;;;;;;;;;6223498;28;20053;-66
2021/06/03 09:36:06;;;;;;;5.15;4.35;;;;;;;;;;6223142;28;20056;-66
2021/06/03 09:39:19;;;;;;;5.90;2.33;;;;;;;;;;6220718;28;20046;-66
2021/06/03 09:42:21;;;;;;;3.70;2.30;;;;;;;;;;6222412;28;20161;-66
2021/06/03 09:45:24;;;;;;;3.17;2.88;;;;;;;;;;6220383;28;20049;-66
2021/06/03 09:48:35;;;;;;;2.80;2.50;;;;;;;;;;6206735;28;20129;-65
2021/06/03 09:51:38;;;;;;;4.20;3.80;;;;;;;;;;6198579;28;20051;-66
2021/06/03 09:54:44;;;;;;;4.82;4.05;;;;;;;;;;6198454;28;20050;-66
2021/06/03 09:57:45;;;;;;;4.55;3.67;;;;;;;;;;6199323;28;20065;-66
2021/06/03 10:00:48;;;;;;;7.13;5.32;;;;;;;;;;6202764;28;20542;-66
2021/06/03 10:03:50;;;;;;;7.03;4.95;;;;;;;;;;6203198;28;20056;-65
2021/06/03 10:07:12;;;;;;;8.25;4.97;;;;;;;;;;6244760;28;20381;-66
2021/06/03 10:10:13;;;;;;;4.25;3.85;;;;;;;;;;6252146;28;20137;-66
2021/06/03 10:13:14;;;;;;;7.60;4.90;;;;;;;;;;6251930;28;20077;-66
2021/06/03 10:16:29;;;;;;;5.05;4.55;;;;;;;;;;6251813;28;20464;-66
2021/06/03 10:19:31;;;;;;;7.13;4.95;;;;;;;;;;6251580;28;20148;-66
2021/06/03 10:22:33;;;;;;;4.65;4.20;;;;;;;;;;6252020;28;20041;-66
2021/06/03 10:25:36;;;;;;;4.88;3.55;;;;;;;;;;6240748;28;20065;-66
2021/06/03 10:28:38;;;;;;;8.95;5.05;;;;;;;;;;6250004;28;20080;-66
2021/06/03 10:31:41;;;;;;;6.43;4.20;;;;;;;;;;6250966;28;20382;-65
2021/06/03 10:34:43;;;;;;;8.10;3.75;;;;;;;;;;6250728;28;20054;-66
2021/06/03 10:37:45;;;;;;;4.30;3.90;;;;;;;;;;6249144;28;20128;-65
2021/06/03 10:40:48;;;;;;;5.00;3.33;;;;;;;;;;6251199;28;20076;-66
2021/06/03 10:43:49;;;;;;;5.35;3.78;;;;;;;;;;6250946;28;20128;-65
2021/06/03 10:46:52;;;;;;;5.32;4.05;;;;;;;;;;6250081;28;20132;-66
2021/06/03 10:49:54;;;;;;;;;;;;;;;;;;6251326;28;20041;-66
2021/06/03 10:52:56;;;;;;;5.53;3.70;;;;;;;;;;6249942;28;19928;-66
2021/06/03 10:56:08;;;;;;;4.72;4.32;;;;;;;;;;6250657;28;20088;-65
2021/06/03 10:59:30;;;;;;;4.80;4.38;;;;;;;;;;6249777;28;20045;-67
2021/06/03 11:02:51;;;;;;;6.10;3.67;;;;;;;;;;6232289;28;20132;-66
2021/06/03 11:06:01;;;;;;;3.20;2.85;;;;;;;;;;6212323;28;20192;-66
2021/06/03 11:09:06;;;;;;;8.38;3.47;;;;;;;;;;6224914;28;20050;-66
2021/06/03 11:12:15;;;;;;;5.13;3.30;;;;;;;;;;6225425;28;20100;-66
2021/06/03 11:15:18;;;;;;;6.65;3.25;;;;;;;;;;6225605;28;20529;-67
2021/06/03 11:18:21;;;;;;;5.35;3.58;;;;;;;;;;6225380;28;20056;-66
2021/06/03 11:21:51;;;;;;;4.20;3.80;;;;;;;;;;6224730;28;20397;-66
2021/06/03 11:24:52;;;;;;;5.43;3.63;;;;;;;;;;6224949;28;20145;-66
2021/06/03 11:27:53;;;;;;;5.63;3.47;;;;;;;;;;6224843;28;20132;-65
2021/06/03 11:30:55;;;;;;;4.03;3.58;;;;;;;;;;6224311;28;20129;-66
2021/06/03 11:34:11;;;;;;;8.50;3.05;;;;;;;;;;6223561;28;20069;-66
2021/06/03 11:37:14;;;;;;;4.60;3.05;;;;;;;;;;6223540;28;20037;-66
2021/06/03 11:40:20;;;;;;;4.35;2.60;;;;;;;;;;6224732;28;20370;-67
2021/06/03 11:43:21;;;;;;;2.10;1.90;;;;;;;;;;6224547;28;20069;-67
2021/06/03 11:46:59;;;;;;;3.10;2.63;;;;;;;;;;6224448;28;20050;-66
2021/06/03 11:50:08;;;;;;;3.97;2.30;;;;;;;;;;6224879;28;20399;-66
2021/06/03 11:53:12;;;;;;;4.35;2.38;;;;;;;;;;6224227;28;20046;-66
2021/06/03 11:56:19;;;;;;;3.95;2.40;;;;;;;;;;6225191;28;20058;-64
2021/06/03 11:59:53;;;;;;;2.88;2.50;;;;;;;;;;6224365;28;20072;-64
2021/06/03 12:02:54;;;;;;;2.92;2.60;;;;;;;;;;6224964;28;20054;-65
2021/06/03 12:05:58;;;;;;;3.05;2.67;;;;;;;;;;6223272;28;20493;-65
2021/06/03 12:09:00;;;;;;;4.05;2.75;;;;;;;;;;6224796;28;20042;-65
2021/06/03 12:12:02;;;;;;;;;;;;;;;;;;6225861;28;20065;-65
2021/06/03 12:15:16;;;;;;;4.10;2.30;;;;;;;;;;6223567;28;20299;-65
2021/06/03 12:18:17;;;;;;;7.03;2.08;;;;;;;;;;6225398;28;20058;-65
2021/06/03 12:21:23;;;;;;;3.55;1.90;;;;;;;;;;6224013;28;20042;-65
2021/06/03 12:24:35;;;;;;;5.78;2.30;;;;;;;;;;6224734;28;20042;-65
2021/06/03 12:27:40;;;;;;;2.65;1.83;;;;;;;;;;6220602;28;20042;-65
2021/06/03 12:30:43;;;;;;;4.50;2.28;;;;;;;;;;6231597;28;20054;-66
2021/06/03 12:33:44;;;;;;;4.30;2.03;;;;;;;;;;6224508;28;20046;-65
2021/06/03 12:36:47;;;;;;;8.70;2.40;;;;;;;;;;6210133;28;20527;-67
2021/06/03 12:39:49;;;;;;;6.45;2.50;;;;;;;;;;6223891;28;20100;-65
2021/06/03 12:42:50;;;;;;;3.13;2.00;;;;;;;;;;6223730;28;20061;-66
2021/06/03 12:45:51;;;;;;;3.88;2.00;;;;;;;;;;6224017;28;20042;-65
2021/06/03 12:49:00;;;;;;;4.60;2.13;;;;;;;;;;6223274;28;20108;-66
2021/06/03 12:52:05;;;;;;;3.72;1.80;;;;;;;;;;6223633;28;20537;-65
2021/06/03 12:55:08;;;;;;;3.50;2.28;;;;;;;;;;6223008;28;20045;-66
2021/06/03 12:58:10;;;;;;;2.92;2.30;;;;;;;;;;6224031;28;20062;-65
2021/06/03 13:01:15;;;;;;;3.60;2.10;;;;;;;;;;6223477;28;20042;-66
2021/06/03 13:04:16;;;;;;;3.45;2.22;;;;;;;;;;6222099;28;20054;-67
2021/06/03 13:07:26;;;;;;;3.13;2.05;;;;;;;;;;6223171;28;20042;-66
2021/06/03 13:10:27;;;;;;;3.40;2.20;;;;;;;;;;6221405;28;20050;-66
2021/06/03 13:13:29;;;;;;;3.45;2.08;;;;;;;;;;6223481;28;20114;-66
2021/06/03 13:16:30;;;;;;;4.63;2.08;;;;;;;;;;6223599;28;20057;-66
2021/06/03 13:19:34;;;;;;;5.23;2.87;;;;;;;;;;6222640;28;20098;-65
2021/06/03 13:22:37;;;;;;;3.65;2.13;;;;;;;;;;6223482;28;20445;-66
2021/06/03 13:25:40;;;;;;;7.00;2.67;;;;;;;;;;6222743;28;20104;-66
2021/06/03 13:28:41;;;;;;;3.78;2.15;;;;;;;;;;6223351;28;20108;-66
2021/06/03 13:31:43;;;;;;;5.47;2.20;;;;;;;;;;6222822;28;20045;-66
2021/06/03 13:34:45;;;;;;;;;;;;;;;;;;6229069;28;20049;-66
2021/06/03 13:38:03;;;;;;;2.28;1.92;;;;;;;;;;6227561;28;20365;-66
2021/06/03 13:41:19;;;;;;;3.10;2.25;;;;;;;;;;6227037;28;20159;-65
2021/06/03 13:45:10;;;;;;;2.97;2.45;;;;;;;;;;6227539;28;20144;-67
2021/06/03 13:48:17;;;;;;;4.93;2.33;;;;;;;;;;6196446;28;20081;-66
2021/06/03 13:51:19;;;;;;;3.17;2.38;;;;;;;;;;6227084;28;20046;-66
2021/06/03 13:54:21;;;;;;;;;;;;;;;;;;6226606;28;20080;-66
2021/06/03 13:57:40;;;;;;;2.80;1.90;;;;;;;;;;6227029;28;19929;-66
2021/06/03 14:00:45;;;;;;;5.20;2.08;;;;;;;;;;6227244;28;20425;-65
2021/06/03 14:03:48;;;;;;;5.97;2.50;;;;;;;;;;6227084;28;20042;-65
2021/06/03 14:06:52;;;;;;;3.38;2.47;;;;;;;;;;6203005;28;20564;-68
2021/06/03 14:10:08;;;;;;;3.53;2.35;;;;;;;;;;6201462;28;20046;-65
2021/06/03 14:13:10;;;;;;;8.07;2.65;;;;;;;;;;6201622;28;20145;-66
2021/06/03 14:16:12;;;;;;;4.82;2.00;;;;;;;;;;6201582;28;20557;-66
2021/06/03 14:19:17;;;;;;;4.72;2.88;;;;;;;;;;6201803;28;20049;-67
2021/06/03 14:22:20;;;;;;;4.93;2.10;;;;;;;;;;6201320;28;20101;-66
2021/06/03 14:25:23;;;;;;;4.43;2.00;;;;;;;;;;6191569;28;20144;-66
2021/06/03 14:28:27;;;;;;;3.05;2.25;;;;;;;;;;6212366;28;20085;-66
2021/06/03 14:31:42;;;;;;;3.65;2.35;;;;;;;;;;6200702;28;20050;-66
2021/06/03 14:34:43;;;;;;;2.15;1.95;;;;;;;;;;6201080;28;20047;-66
2021/06/03 14:37:48;;;;;;;3.65;2.10;;;;;;;;;;6198891;28;20070;-67
2021/06/03 14:40:56;;;;;;;7.40;2.30;;;;;;;;;;6222607;28;20058;-66
2021/06/03 14:44:06;;;;;;;3.53;1.90;;;;;;;;;;6213799;28;20504;-66
2021/06/03 14:47:07;;;;;;;7.07;2.25;;;;;;;;;;6223453;28;20057;-66
2021/06/03 14:50:11;;;;;;;12.52;2.47;;;;;;;;;;6223671;28;20054;-66
2021/06/03 14:53:13;;;;;;;18.73;2.88;;;;;;;;;;6223342;28;20381;-66
2021/06/03 14:56:16;;;;;;;2.75;1.88;;;;;;;;;;6223632;28;20068;-66
2021/06/03 14:59:17;;;;;;;5.22;1.95;;;;;;;;;;6223918;28;20052;-67
2021/06/03 15:02:18;;;;;;;14.23;2.30;;;;;;;;;;6223676;28;20188;-66
2021/06/03 15:05:21;;;;;;;4.55;1.85;;;;;;;;;;6204450;28;20058;-67
2021/06/03 15:08:23;;;;;;;4.37;1.97;;;;;;;;;;6200117;28;20055;-66
2021/06/03 15:11:26;;;;;;;;;;;;;;;;;;6199690;28;20054;-66
2021/06/03 15:14:27;;;;;;;5.25;2.00;;;;;;;;;;6199476;28;20324;-66
2021/06/03 15:17:30;;;;;;;4.45;2.15;;;;;;;;;;6199817;28;20065;-66
2021/06/03 15:20:34;;;;;;;9.30;2.08;;;;;;;;;;6199148;28;20047;-66
2021/06/03 15:23:35;;;;;;;3.80;1.98;;;;;;;;;;6199016;28;20482;-67
2021/06/03 15:26:37;;;;;;;8.30;1.90;;;;;;;;;;6199201;28;20077;-66
2021/06/03 15:29:39;;;;;;;4.03;2.00;;;;;;;;;;6198997;28;20051;-66
2021/06/03 15:32:42;;;;;;;3.05;1.90;;;;;;;;;;6199312;28;20054;-66
2021/06/03 15:35:43;;;;;;;;;;;;;;;;;;6197190;28;20046;-66
2021/06/03 15:38:45;;;;;;;11.77;1.80;;;;;;;;;;6199435;28;20028;-66
2021/06/03 15:41:48;;;;;;;13.07;2.15;;;;;;;;;;6198763;28;20058;-66
2021/06/03 15:44:49;;;;;;;1.80;1.70;;;;;;;;;;6198986;28;20470;-66
2021/06/03 15:47:51;;;;;;;4.28;1.67;;;;;;;;;;6196544;28;20421;-66
2021/06/03 15:50:53;;;;;;;6.32;1.70;;;;;;;;;;6198983;28;20046;-66
2021/06/03 15:53:54;;;;;;;3.13;1.60;;;;;;;;;;6198658;28;20046;-65
2021/06/03 15:56:57;;;;;;;4.10;1.65;;;;;;;;;;6199302;28;20118;-65
2021/06/03 15:59:58;;;;;;;3.88;1.95;;;;;;;;;;6198381;28;20132;-65
2021/06/03 16:03:00;;;;;;;4.75;1.80;;;;;;;;;;6198206;28;20050;-66
2021/06/03 16:06:03;;;;;;;3.20;1.85;;;;;;;;;;6195531;28;20051;-66
2021/06/03 16:09:04;;;;;;;4.50;1.40;;;;;;;;;;6189242;28;20046;-67
2021/06/03 16:12:08;;;;;;;3.53;1.63;;;;;;;;;;6212264;28;20964;-65
2021/06/03 16:15:13;;;;;;;3.33;1.85;;;;;;;;;;6198243;28;20551;-66
2021/06/03 16:18:14;;;;;;;3.38;1.60;;;;;;;;;;6198720;28;20080;-66
2021/06/03 16:21:16;;;;;;;3.33;1.73;;;;;;;;;;6198153;28;20058;-66
2021/06/03 16:24:18;;;;;;;4.82;1.83;;;;;;;;;;6214468;28;20050;-66
2021/06/03 16:27:20;;;;;;;2.58;1.70;;;;;;;;;;6222468;28;20160;-65
2021/06/03 16:30:24;;;;;;;1.80;1.60;;;;;;;;;;6217568;28;20042;-65
2021/06/03 16:33:26;;;;;;;3.55;1.80;;;;;;;;;;6223141;28;20053;-66
2021/06/03 16:36:28;;;;;;;6.00;1.70;;;;;;;;;;6223146;28;20077;-66
2021/06/03 16:39:29;;;;;;;4.90;1.92;;;;;;;;;;6222727;28;20046;-66
2021/06/03 16:42:32;;;;;;;5.60;1.70;;;;;;;;;;6222885;28;20042;-67
2021/06/03 16:45:33;;;;;;;2.20;1.50;;;;;;;;;;6223523;28;20057;-67
2021/06/03 16:48:34;;;;;;;2.42;1.58;;;;;;;;;;6222015;28;20068;-66
2021/06/03 16:51:36;;;;;;;4.88;1.70;;;;;;;;;;6222495;28;20041;-66
2021/06/03 16:54:37;;;;;;;9.40;2.10;;;;;;;;;;6222264;28;20065;-66
2021/06/03 16:57:40;;;;;;;4.03;1.55;;;;;;;;;;6222278;28;20065;-66
2021/06/03 17:00:42;;;;;;;;;;;;;;;;;;6222873;28;20401;-67
2021/06/03 17:03:44;;;;;;;2.78;1.80;;;;;;;;;;6222602;28;20257;-66
2021/06/03 17:06:45;;;;;;;7.32;1.90;;;;;;;;;;6197574;28;20069;-66
2021/06/03 17:09:47;;;;;;;6.97;2.03;;;;;;;;;;6198185;28;20446;-66
2021/06/03 17:12:50;;;;;;;6.35;1.80;;;;;;;;;;6198515;28;20108;-66
2021/06/03 17:15:51;;;;;;;2.30;1.70;;;;;;;;;;6198500;28;20042;-65
2021/06/03 17:18:52;;;;;;;3.88;1.70;;;;;;;;;;6197933;28;20386;-66
2021/06/03 17:21:54;;;;;;;2.97;1.85;;;;;;;;;;6198175;28;20054;-66
2021/06/03 17:24:55;;;;;;;4.60;1.52;;;;;;;;;;6198162;28;20050;-66
2021/06/03 17:27:58;;;;;;;1.95;1.60;;;;;;;;;;6197559;28;20050;-66
2021/06/03 17:31:01;;;;;;;2.13;1.55;;;;;;;;;;6197375;28;20386;-66
2021/06/03 17:34:03;;;;;;;2.17;1.80;;;;;;;;;;6163337;28;20074;-68
2021/06/03 17:37:04;;;;;;;1.90;1.70;;;;;;;;;;6190288;28;20058;-67
2021/06/03 17:40:07;;;;;;;2.72;1.70;;;;;;;;;;6197893;28;20046;-66
2021/06/03 17:43:10;;;;;;;2.10;1.70;;;;;;;;;;6197817;28;20055;-68
2021/06/03 17:46:12;;;;;;;2.92;1.73;;;;;;;;;;6198257;28;20104;-67
2021/06/03 17:49:13;;;;;;;2.05;1.52;;;;;;;;;;6196643;28;20393;-67
2021/06/03 17:52:15;;;;;;;3.53;1.90;;;;;;;;;;6222728;28;20050;-66
2021/06/03 17:55:18;;;;;;;6.75;1.70;;;;;;;;;;6214089;28;20053;-67
2021/06/03 17:58:21;;;;;;;3.20;1.67;;;;;;;;;;6222300;28;20069;-67
2021/06/03 18:01:24;;;;;;;;;;;;;;;;;;6218240;28;20455;-67
2021/06/03 18:04:25;;;;;;;3.42;1.60;;;;;;;;;;6218226;28;19933;-66
2021/06/03 18:07:28;;;;;;;4.82;1.83;;;;;;;;;;6197501;28;20089;-66
2021/06/03 18:10:29;;;;;;;3.50;1.85;;;;;;;;;;6197998;28;20094;-66
2021/06/03 18:13:32;;;;;;;2.78;1.63;;;;;;;;;;6198063;28;20169;-66
2021/06/03 18:16:33;;;;;;;3.63;1.90;;;;;;;;;;6196938;28;20050;-66